sensor_id;sensor_type;location;lat;lon;timestamp;P1;durP1;ratioP1;P2;durP2;ratioP2
8281;SDS011;25606;42.686;23.136;2022-10-17T00:00:00;10.33;;;6.40;;
8281;SDS011;25606;42.686;23.136;2022-10-17T00:02:28;7.40;;;5.70;;
8281;SDS011;25606;42.686;23.136;2022-10-17T00:04:55;10.93;;;7.17;;
8281;SDS011;25606;42.686;23.136;2022-10-17T00:07:22;9.90;;;6.60;;
8281;SDS011;25606;42.686;23.136;2022-10-17T00:09:50;8.23;;;6.37;;
8281;SDS011;25606;42.686;23.136;2022-10-17T00:12:17;8.67;;;6.10;;
8281;SDS011;25606;42.686;23.136;2022-10-17T00:14:46;7.00;;;6.30;;
8281;SDS011;25606;42.686;23.136;2022-10-17T00:17:13;7.97;;;6.20;;
8281;SDS011;25606;42.686;23.136;2022-10-17T00:19:40;7.63;;;6.30;;
8281;SDS011;25606;42.686;23.136;2022-10-17T00:22:08;9.17;;;5.57;;
8281;SDS011;25606;42.686;23.136;2022-10-17T00:24:35;7.83;;;5.57;;
8281;SDS011;25606;42.686;23.136;2022-10-17T00:27:02;7.47;;;6.00;;
8281;SDS011;25606;42.686;23.136;2022-10-17T00:29:30;6.77;;;5.67;;
8281;SDS011;25606;42.686;23.136;2022-10-17T00:31:58;9.93;;;6.23;;
8281;SDS011;25606;42.686;23.136;2022-10-17T00:34:27;8.70;;;5.70;;
8281;SDS011;25606;42.686;23.136;2022-10-17T00:36:55;7.50;;;5.47;;
8281;SDS011;25606;42.686;23.136;2022-10-17T00:39:22;9.53;;;5.83;;
8281;SDS011;25606;42.686;23.136;2022-10-17T00:41:49;8.53;;;5.70;;
8281;SDS011;25606;42.686;23.136;2022-10-17T00:47:05;9.03;;;5.80;;
8281;SDS011;25606;42.686;23.136;2022-10-17T00:49:33;9.07;;;6.17;;
8281;SDS011;25606;42.686;23.136;2022-10-17T00:52:02;7.07;;;5.97;;
8281;SDS011;25606;42.686;23.136;2022-10-17T00:54:31;6.40;;;5.80;;
8281;SDS011;25606;42.686;23.136;2022-10-17T00:57:00;7.57;;;5.60;;
8281;SDS011;25606;42.686;23.136;2022-10-17T00:59:27;6.63;;;5.63;;
8281;SDS011;25606;42.686;23.136;2022-10-17T01:01:55;8.67;;;5.73;;
8281;SDS011;25606;42.686;23.136;2022-10-17T01:04:27;7.17;;;5.30;;
8281;SDS011;25606;42.686;23.136;2022-10-17T01:06:54;9.33;;;5.90;;
8281;SDS011;25606;42.686;23.136;2022-10-17T01:09:22;8.03;;;5.20;;
8281;SDS011;25606;42.686;23.136;2022-10-17T01:11:50;7.43;;;5.20;;
8281;SDS011;25606;42.686;23.136;2022-10-17T01:14:20;9.73;;;5.70;;
8281;SDS011;25606;42.686;23.136;2022-10-17T01:16:53;7.70;;;5.60;;
8281;SDS011;25606;42.686;23.136;2022-10-17T01:19:34;8.73;;;5.47;;
8281;SDS011;25606;42.686;23.136;2022-10-17T01:22:06;6.60;;;5.73;;
8281;SDS011;25606;42.686;23.136;2022-10-17T01:30:25;11.80;;;5.70;;
8281;SDS011;25606;42.686;23.136;2022-10-17T01:32:56;8.10;;;6.20;;
8281;SDS011;25606;42.686;23.136;2022-10-17T01:35:25;7.53;;;6.03;;
8281;SDS011;25606;42.686;23.136;2022-10-17T01:37:55;6.70;;;5.57;;
8281;SDS011;25606;42.686;23.136;2022-10-17T01:40:25;8.80;;;6.53;;
8281;SDS011;25606;42.686;23.136;2022-10-17T01:42:55;8.70;;;6.63;;
8281;SDS011;25606;42.686;23.136;2022-10-17T01:45:24;8.87;;;6.13;;
8281;SDS011;25606;42.686;23.136;2022-10-17T01:47:53;8.23;;;6.33;;
8281;SDS011;25606;42.686;23.136;2022-10-17T01:50:24;7.17;;;5.90;;
8281;SDS011;25606;42.686;23.136;2022-10-17T01:52:55;7.97;;;6.40;;
8281;SDS011;25606;42.686;23.136;2022-10-17T01:55:24;8.83;;;6.40;;
8281;SDS011;25606;42.686;23.136;2022-10-17T01:57:54;6.80;;;6.10;;
8281;SDS011;25606;42.686;23.136;2022-10-17T02:00:24;9.13;;;6.60;;
8281;SDS011;25606;42.686;23.136;2022-10-17T02:02:53;10.07;;;5.73;;
8281;SDS011;25606;42.686;23.136;2022-10-17T02:05:25;8.73;;;6.67;;
8281;SDS011;25606;42.686;23.136;2022-10-17T02:07:54;10.53;;;6.53;;
8281;SDS011;25606;42.686;23.136;2022-10-17T02:10:24;8.00;;;6.67;;
8281;SDS011;25606;42.686;23.136;2022-10-17T02:12:54;8.90;;;7.23;;
8281;SDS011;25606;42.686;23.136;2022-10-17T02:15:32;9.97;;;5.80;;
8281;SDS011;25606;42.686;23.136;2022-10-17T02:18:06;7.07;;;6.13;;
8281;SDS011;25606;42.686;23.136;2022-10-17T02:20:43;8.43;;;6.27;;
8281;SDS011;25606;42.686;23.136;2022-10-17T02:23:15;8.03;;;7.13;;
8281;SDS011;25606;42.686;23.136;2022-10-17T02:25:46;10.00;;;6.87;;
8281;SDS011;25606;42.686;23.136;2022-10-17T02:28:17;9.30;;;7.67;;
8281;SDS011;25606;42.686;23.136;2022-10-17T02:30:46;9.30;;;6.60;;
8281;SDS011;25606;42.686;23.136;2022-10-17T02:33:17;9.13;;;7.60;;
8281;SDS011;25606;42.686;23.136;2022-10-17T02:35:50;8.07;;;7.07;;
8281;SDS011;25606;42.686;23.136;2022-10-17T02:38:18;11.70;;;7.17;;
8281;SDS011;25606;42.686;23.136;2022-10-17T02:40:46;9.57;;;7.10;;
8281;SDS011;25606;42.686;23.136;2022-10-17T02:43:16;9.87;;;7.07;;
8281;SDS011;25606;42.686;23.136;2022-10-17T02:45:43;10.07;;;7.13;;
8281;SDS011;25606;42.686;23.136;2022-10-17T02:48:13;7.70;;;6.27;;
8281;SDS011;25606;42.686;23.136;2022-10-17T02:50:44;7.83;;;6.73;;
8281;SDS011;25606;42.686;23.136;2022-10-17T02:53:19;9.60;;;6.30;;
8281;SDS011;25606;42.686;23.136;2022-10-17T02:55:49;7.47;;;6.67;;
8281;SDS011;25606;42.686;23.136;2022-10-17T02:58:18;8.10;;;6.80;;
8281;SDS011;25606;42.686;23.136;2022-10-17T03:00:46;8.80;;;7.73;;
8281;SDS011;25606;42.686;23.136;2022-10-17T03:03:18;10.23;;;7.60;;
8281;SDS011;25606;42.686;23.136;2022-10-17T03:05:45;11.07;;;7.93;;
8281;SDS011;25606;42.686;23.136;2022-10-17T03:08:13;9.90;;;7.53;;
8281;SDS011;25606;42.686;23.136;2022-10-17T03:10:41;8.70;;;7.80;;
8281;SDS011;25606;42.686;23.136;2022-10-17T03:13:09;9.63;;;7.50;;
8281;SDS011;25606;42.686;23.136;2022-10-17T03:15:36;10.20;;;7.93;;
8281;SDS011;25606;42.686;23.136;2022-10-17T03:18:03;8.77;;;7.87;;
8281;SDS011;25606;42.686;23.136;2022-10-17T03:20:31;9.17;;;7.63;;
8281;SDS011;25606;42.686;23.136;2022-10-17T03:22:58;9.43;;;7.27;;
8281;SDS011;25606;42.686;23.136;2022-10-17T03:25:25;9.33;;;7.90;;
8281;SDS011;25606;42.686;23.136;2022-10-17T03:27:56;9.90;;;7.83;;
8281;SDS011;25606;42.686;23.136;2022-10-17T03:30:23;8.73;;;7.13;;
8281;SDS011;25606;42.686;23.136;2022-10-17T03:32:51;9.13;;;7.93;;
8281;SDS011;25606;42.686;23.136;2022-10-17T03:35:18;8.23;;;7.33;;
8281;SDS011;25606;42.686;23.136;2022-10-17T03:37:45;9.70;;;7.40;;
8281;SDS011;25606;42.686;23.136;2022-10-17T03:40:13;9.63;;;7.53;;
8281;SDS011;25606;42.686;23.136;2022-10-17T03:42:40;8.97;;;6.93;;
8281;SDS011;25606;42.686;23.136;2022-10-17T03:45:09;7.60;;;6.50;;
8281;SDS011;25606;42.686;23.136;2022-10-17T03:47:37;7.60;;;6.40;;
8281;SDS011;25606;42.686;23.136;2022-10-17T03:50:04;8.30;;;6.33;;
8281;SDS011;25606;42.686;23.136;2022-10-17T03:52:32;9.57;;;6.90;;
8281;SDS011;25606;42.686;23.136;2022-10-17T03:54:59;7.93;;;6.50;;
8281;SDS011;25606;42.686;23.136;2022-10-17T03:57:26;9.53;;;6.83;;
8281;SDS011;25606;42.686;23.136;2022-10-17T03:59:53;8.07;;;6.27;;
8281;SDS011;25606;42.686;23.136;2022-10-17T04:02:22;8.70;;;6.33;;
8281;SDS011;25606;42.686;23.136;2022-10-17T04:04:50;8.33;;;6.30;;
8281;SDS011;25606;42.686;23.136;2022-10-17T04:07:17;8.07;;;6.03;;
8281;SDS011;25606;42.686;23.136;2022-10-17T04:09:44;6.83;;;6.03;;
8281;SDS011;25606;42.686;23.136;2022-10-17T04:12:11;7.83;;;5.93;;
8281;SDS011;25606;42.686;23.136;2022-10-17T04:14:39;9.60;;;6.33;;
8281;SDS011;25606;42.686;23.136;2022-10-17T04:17:06;6.60;;;5.43;;
8281;SDS011;25606;42.686;23.136;2022-10-17T04:19:35;8.77;;;6.10;;
8281;SDS011;25606;42.686;23.136;2022-10-17T04:22:02;8.20;;;6.00;;
8281;SDS011;25606;42.686;23.136;2022-10-17T04:24:32;8.17;;;6.00;;
8281;SDS011;25606;42.686;23.136;2022-10-17T04:26:59;11.53;;;6.33;;
8281;SDS011;25606;42.686;23.136;2022-10-17T04:29:27;8.57;;;6.63;;
8281;SDS011;25606;42.686;23.136;2022-10-17T04:31:54;8.77;;;6.43;;
8281;SDS011;25606;42.686;23.136;2022-10-17T04:34:21;9.07;;;6.20;;
8281;SDS011;25606;42.686;23.136;2022-10-17T04:36:50;7.37;;;6.30;;
8281;SDS011;25606;42.686;23.136;2022-10-17T04:39:17;7.60;;;6.80;;
8281;SDS011;25606;42.686;23.136;2022-10-17T04:41:45;9.13;;;6.43;;
8281;SDS011;25606;42.686;23.136;2022-10-17T04:44:12;7.67;;;5.83;;
8281;SDS011;25606;42.686;23.136;2022-10-17T04:46:39;7.47;;;6.40;;
8281;SDS011;25606;42.686;23.136;2022-10-17T04:49:07;9.20;;;6.43;;
8281;SDS011;25606;42.686;23.136;2022-10-17T04:51:34;7.77;;;6.63;;
8281;SDS011;25606;42.686;23.136;2022-10-17T04:54:03;9.80;;;7.00;;
8281;SDS011;25606;42.686;23.136;2022-10-17T04:56:30;8.93;;;6.77;;
8281;SDS011;25606;42.686;23.136;2022-10-17T04:58:58;8.50;;;6.40;;
8281;SDS011;25606;42.686;23.136;2022-10-17T05:01:25;9.23;;;6.30;;
8281;SDS011;25606;42.686;23.136;2022-10-17T05:03:52;9.40;;;6.40;;
8281;SDS011;25606;42.686;23.136;2022-10-17T05:06:20;9.23;;;6.27;;
8281;SDS011;25606;42.686;23.136;2022-10-17T05:08:48;8.17;;;6.60;;
8281;SDS011;25606;42.686;23.136;2022-10-17T05:11:17;7.90;;;6.63;;
8281;SDS011;25606;42.686;23.136;2022-10-17T05:13:48;7.83;;;6.10;;
8281;SDS011;25606;42.686;23.136;2022-10-17T05:16:15;7.13;;;6.17;;
8281;SDS011;25606;42.686;23.136;2022-10-17T05:18:43;8.13;;;6.40;;
8281;SDS011;25606;42.686;23.136;2022-10-17T05:21:10;8.53;;;6.80;;
8281;SDS011;25606;42.686;23.136;2022-10-17T05:23:37;8.33;;;6.77;;
8281;SDS011;25606;42.686;23.136;2022-10-17T05:26:04;9.17;;;7.43;;
8281;SDS011;25606;42.686;23.136;2022-10-17T05:28:33;11.07;;;7.70;;
8281;SDS011;25606;42.686;23.136;2022-10-17T05:31:01;9.90;;;7.37;;
8281;SDS011;25606;42.686;23.136;2022-10-17T05:33:28;9.73;;;7.73;;
8281;SDS011;25606;42.686;23.136;2022-10-17T05:35:56;9.67;;;8.33;;
8281;SDS011;25606;42.686;23.136;2022-10-17T05:38:23;12.40;;;8.90;;
8281;SDS011;25606;42.686;23.136;2022-10-17T05:40:50;11.10;;;8.70;;
8281;SDS011;25606;42.686;23.136;2022-10-17T05:43:18;12.33;;;9.20;;
8281;SDS011;25606;42.686;23.136;2022-10-17T05:45:46;10.13;;;7.90;;
8281;SDS011;25606;42.686;23.136;2022-10-17T05:48:13;10.77;;;7.40;;
8281;SDS011;25606;42.686;23.136;2022-10-17T05:50:41;11.83;;;8.53;;
8281;SDS011;25606;42.686;23.136;2022-10-17T05:53:08;10.17;;;7.53;;
8281;SDS011;25606;42.686;23.136;2022-10-17T05:55:35;11.20;;;8.13;;
8281;SDS011;25606;42.686;23.136;2022-10-17T05:58:03;10.43;;;8.37;;
8281;SDS011;25606;42.686;23.136;2022-10-17T06:00:30;11.10;;;7.93;;
8281;SDS011;25606;42.686;23.136;2022-10-17T06:02:59;11.13;;;8.33;;
8281;SDS011;25606;42.686;23.136;2022-10-17T06:05:26;9.87;;;7.77;;
8281;SDS011;25606;42.686;23.136;2022-10-17T06:07:53;8.90;;;6.73;;
8281;SDS011;25606;42.686;23.136;2022-10-17T06:10:20;8.00;;;7.20;;
8281;SDS011;25606;42.686;23.136;2022-10-17T06:12:48;8.20;;;7.00;;
8281;SDS011;25606;42.686;23.136;2022-10-17T06:15:15;8.80;;;6.50;;
8281;SDS011;25606;42.686;23.136;2022-10-17T06:17:42;6.73;;;6.07;;
8281;SDS011;25606;42.686;23.136;2022-10-17T06:20:11;9.83;;;7.30;;
8281;SDS011;25606;42.686;23.136;2022-10-17T06:22:38;7.73;;;6.57;;
8281;SDS011;25606;42.686;23.136;2022-10-17T06:25:05;8.00;;;7.20;;
8281;SDS011;25606;42.686;23.136;2022-10-17T06:27:33;7.47;;;6.40;;
8281;SDS011;25606;42.686;23.136;2022-10-17T06:30:00;8.77;;;7.20;;
8281;SDS011;25606;42.686;23.136;2022-10-17T06:32:28;8.93;;;7.37;;
8281;SDS011;25606;42.686;23.136;2022-10-17T06:34:55;11.53;;;7.77;;
8281;SDS011;25606;42.686;23.136;2022-10-17T06:37:24;7.87;;;7.07;;
8281;SDS011;25606;42.686;23.136;2022-10-17T06:39:51;10.50;;;7.33;;
8281;SDS011;25606;42.686;23.136;2022-10-17T06:42:18;9.03;;;7.40;;
8281;SDS011;25606;42.686;23.136;2022-10-17T06:44:45;10.20;;;7.93;;
8281;SDS011;25606;42.686;23.136;2022-10-17T06:47:13;10.67;;;8.13;;
8281;SDS011;25606;42.686;23.136;2022-10-17T06:49:40;9.20;;;7.80;;
8281;SDS011;25606;42.686;23.136;2022-10-17T06:52:08;8.77;;;7.83;;
8281;SDS011;25606;42.686;23.136;2022-10-17T06:54:37;10.27;;;7.77;;
8281;SDS011;25606;42.686;23.136;2022-10-17T06:57:04;10.73;;;8.37;;
8281;SDS011;25606;42.686;23.136;2022-10-17T06:59:31;11.90;;;8.37;;
8281;SDS011;25606;42.686;23.136;2022-10-17T07:01:59;8.67;;;7.40;;
8281;SDS011;25606;42.686;23.136;2022-10-17T07:04:26;9.17;;;7.57;;
8281;SDS011;25606;42.686;23.136;2022-10-17T07:06:54;12.23;;;9.40;;
8281;SDS011;25606;42.686;23.136;2022-10-17T07:09:21;10.10;;;7.50;;
8281;SDS011;25606;42.686;23.136;2022-10-17T07:11:50;9.13;;;8.10;;
8281;SDS011;25606;42.686;23.136;2022-10-17T07:14:17;12.17;;;8.37;;
8281;SDS011;25606;42.686;23.136;2022-10-17T07:16:45;11.83;;;9.77;;
8281;SDS011;25606;42.686;23.136;2022-10-17T07:19:12;16.63;;;12.63;;
8281;SDS011;25606;42.686;23.136;2022-10-17T07:21:39;12.53;;;10.93;;
8281;SDS011;25606;42.686;23.136;2022-10-17T07:24:06;11.90;;;9.30;;
8281;SDS011;25606;42.686;23.136;2022-10-17T07:26:34;10.10;;;8.47;;
8281;SDS011;25606;42.686;23.136;2022-10-17T07:29:03;10.70;;;7.40;;
8281;SDS011;25606;42.686;23.136;2022-10-17T07:31:31;9.30;;;7.10;;
8281;SDS011;25606;42.686;23.136;2022-10-17T07:33:59;9.10;;;6.33;;
8281;SDS011;25606;42.686;23.136;2022-10-17T07:36:26;9.77;;;7.93;;
8281;SDS011;25606;42.686;23.136;2022-10-17T07:38:53;8.67;;;6.50;;
8281;SDS011;25606;42.686;23.136;2022-10-17T07:41:21;13.67;;;8.57;;
8281;SDS011;25606;42.686;23.136;2022-10-17T07:43:48;11.27;;;8.67;;
8281;SDS011;25606;42.686;23.136;2022-10-17T07:46:17;13.40;;;9.00;;
8281;SDS011;25606;42.686;23.136;2022-10-17T07:48:44;8.50;;;6.93;;
8281;SDS011;25606;42.686;23.136;2022-10-17T07:51:12;10.53;;;7.27;;
8281;SDS011;25606;42.686;23.136;2022-10-17T07:53:39;7.17;;;6.47;;
8281;SDS011;25606;42.686;23.136;2022-10-17T07:56:07;7.80;;;6.77;;
8281;SDS011;25606;42.686;23.136;2022-10-17T07:58:35;10.47;;;8.40;;
8281;SDS011;25606;42.686;23.136;2022-10-17T08:01:03;7.63;;;5.73;;
8281;SDS011;25606;42.686;23.136;2022-10-17T08:03:32;7.87;;;6.80;;
8281;SDS011;25606;42.686;23.136;2022-10-17T08:05:59;8.80;;;6.83;;
8281;SDS011;25606;42.686;23.136;2022-10-17T08:08:27;7.10;;;6.40;;
8281;SDS011;25606;42.686;23.136;2022-10-17T08:10:54;6.70;;;6.00;;
8281;SDS011;25606;42.686;23.136;2022-10-17T08:13:22;9.20;;;6.13;;
8281;SDS011;25606;42.686;23.136;2022-10-17T08:15:49;6.10;;;5.50;;
8281;SDS011;25606;42.686;23.136;2022-10-17T08:18:16;7.20;;;6.37;;
8281;SDS011;25606;42.686;23.136;2022-10-17T08:20:45;7.10;;;6.43;;
8281;SDS011;25606;42.686;23.136;2022-10-17T08:23:12;7.93;;;6.87;;
8281;SDS011;25606;42.686;23.136;2022-10-17T08:25:40;6.60;;;5.97;;
8281;SDS011;25606;42.686;23.136;2022-10-17T08:28:07;8.47;;;6.43;;
8281;SDS011;25606;42.686;23.136;2022-10-17T08:30:34;8.27;;;5.50;;
8281;SDS011;25606;42.686;23.136;2022-10-17T08:33:01;5.83;;;5.27;;
8281;SDS011;25606;42.686;23.136;2022-10-17T08:35:28;8.23;;;5.63;;
8281;SDS011;25606;42.686;23.136;2022-10-17T08:37:58;6.93;;;5.03;;
8281;SDS011;25606;42.686;23.136;2022-10-17T08:40:26;7.37;;;4.93;;
8281;SDS011;25606;42.686;23.136;2022-10-17T08:43:01;7.07;;;5.80;;
8281;SDS011;25606;42.686;23.136;2022-10-17T08:45:34;9.10;;;5.20;;
8281;SDS011;25606;42.686;23.136;2022-10-17T08:48:03;7.27;;;4.93;;
8281;SDS011;25606;42.686;23.136;2022-10-17T08:50:33;6.50;;;5.07;;
8281;SDS011;25606;42.686;23.136;2022-10-17T08:53:05;10.20;;;4.97;;
8281;SDS011;25606;42.686;23.136;2022-10-17T08:55:35;5.40;;;4.50;;
8281;SDS011;25606;42.686;23.136;2022-10-17T08:58:06;11.50;;;5.17;;
8281;SDS011;25606;42.686;23.136;2022-10-17T09:00:37;5.40;;;4.30;;
8281;SDS011;25606;42.686;23.136;2022-10-17T09:03:08;7.17;;;5.43;;
8281;SDS011;25606;42.686;23.136;2022-10-17T09:05:41;5.73;;;4.93;;
8281;SDS011;25606;42.686;23.136;2022-10-17T09:08:15;6.10;;;4.63;;
8281;SDS011;25606;42.686;23.136;2022-10-17T09:10:49;5.93;;;4.60;;
8281;SDS011;25606;42.686;23.136;2022-10-17T09:13:21;4.70;;;4.17;;
8281;SDS011;25606;42.686;23.136;2022-10-17T09:15:57;5.27;;;4.40;;
8281;SDS011;25606;42.686;23.136;2022-10-17T09:18:29;6.90;;;5.00;;
8281;SDS011;25606;42.686;23.136;2022-10-17T09:21:02;7.57;;;4.13;;
8281;SDS011;25606;42.686;23.136;2022-10-17T09:23:35;10.73;;;4.40;;
8281;SDS011;25606;42.686;23.136;2022-10-17T09:26:07;5.97;;;4.60;;
8281;SDS011;25606;42.686;23.136;2022-10-17T09:28:37;6.57;;;4.30;;
8281;SDS011;25606;42.686;23.136;2022-10-17T09:31:04;7.13;;;4.60;;
8281;SDS011;25606;42.686;23.136;2022-10-17T09:33:34;5.37;;;4.00;;
8281;SDS011;25606;42.686;23.136;2022-10-17T09:36:04;6.93;;;4.80;;
8281;SDS011;25606;42.686;23.136;2022-10-17T09:38:37;4.70;;;4.17;;
8281;SDS011;25606;42.686;23.136;2022-10-17T09:41:06;5.63;;;4.00;;
8281;SDS011;25606;42.686;23.136;2022-10-17T09:43:39;5.37;;;4.40;;
8281;SDS011;25606;42.686;23.136;2022-10-17T09:46:07;4.80;;;3.70;;
8281;SDS011;25606;42.686;23.136;2022-10-17T09:48:38;4.13;;;3.73;;
8281;SDS011;25606;42.686;23.136;2022-10-17T09:51:07;4.30;;;3.20;;
8281;SDS011;25606;42.686;23.136;2022-10-17T09:53:37;5.53;;;3.33;;
8281;SDS011;25606;42.686;23.136;2022-10-17T09:56:06;5.10;;;3.47;;
8281;SDS011;25606;42.686;23.136;2022-10-17T09:58:41;4.47;;;3.57;;
8281;SDS011;25606;42.686;23.136;2022-10-17T10:01:15;5.40;;;3.90;;
8281;SDS011;25606;42.686;23.136;2022-10-17T10:03:43;5.60;;;4.20;;
8281;SDS011;25606;42.686;23.136;2022-10-17T10:06:12;5.23;;;4.00;;
8281;SDS011;25606;42.686;23.136;2022-10-17T10:08:48;5.77;;;4.63;;
8281;SDS011;25606;42.686;23.136;2022-10-17T10:11:16;4.17;;;3.77;;
8281;SDS011;25606;42.686;23.136;2022-10-17T10:13:44;5.87;;;4.30;;
8281;SDS011;25606;42.686;23.136;2022-10-17T10:16:14;4.90;;;3.50;;
8281;SDS011;25606;42.686;23.136;2022-10-17T10:18:42;4.77;;;3.40;;
8281;SDS011;25606;42.686;23.136;2022-10-17T10:21:10;3.00;;;2.73;;
8281;SDS011;25606;42.686;23.136;2022-10-17T10:23:38;5.33;;;3.60;;
8281;SDS011;25606;42.686;23.136;2022-10-17T10:26:21;6.00;;;3.27;;
8281;SDS011;25606;42.686;23.136;2022-10-17T10:28:56;4.47;;;3.07;;
8281;SDS011;25606;42.686;23.136;2022-10-17T10:31:25;2.93;;;2.63;;
8281;SDS011;25606;42.686;23.136;2022-10-17T10:33:53;3.30;;;2.97;;
8281;SDS011;25606;42.686;23.136;2022-10-17T10:36:20;5.03;;;3.30;;
8281;SDS011;25606;42.686;23.136;2022-10-17T10:38:52;3.00;;;2.67;;
8281;SDS011;25606;42.686;23.136;2022-10-17T10:41:22;3.27;;;2.93;;
8281;SDS011;25606;42.686;23.136;2022-10-17T10:43:51;3.20;;;2.33;;
8281;SDS011;25606;42.686;23.136;2022-10-17T10:46:21;2.73;;;2.07;;
8281;SDS011;25606;42.686;23.136;2022-10-17T10:48:50;3.47;;;2.27;;
8281;SDS011;25606;42.686;23.136;2022-10-17T10:51:18;3.27;;;2.03;;
8281;SDS011;25606;42.686;23.136;2022-10-17T10:53:48;3.33;;;2.00;;
8281;SDS011;25606;42.686;23.136;2022-10-17T10:56:17;3.73;;;2.30;;
8281;SDS011;25606;42.686;23.136;2022-10-17T10:58:50;2.70;;;2.20;;
8281;SDS011;25606;42.686;23.136;2022-10-17T11:01:20;4.87;;;2.40;;
8281;SDS011;25606;42.686;23.136;2022-10-17T11:03:53;3.10;;;2.17;;
8281;SDS011;25606;42.686;23.136;2022-10-17T11:06:22;3.93;;;2.47;;
8281;SDS011;25606;42.686;23.136;2022-10-17T11:08:53;3.40;;;2.30;;
8281;SDS011;25606;42.686;23.136;2022-10-17T11:11:24;3.37;;;2.43;;
8281;SDS011;25606;42.686;23.136;2022-10-17T11:13:57;3.60;;;2.35;;
8281;SDS011;25606;42.686;23.136;2022-10-17T11:16:27;6.40;;;3.58;;
8281;SDS011;25606;42.686;23.136;2022-10-17T11:18:57;5.80;;;2.57;;
8281;SDS011;25606;42.686;23.136;2022-10-17T11:21:27;4.32;;;3.00;;
8281;SDS011;25606;42.686;23.136;2022-10-17T11:23:58;3.67;;;2.87;;
8281;SDS011;25606;42.686;23.136;2022-10-17T11:26:27;5.93;;;2.97;;
8281;SDS011;25606;42.686;23.136;2022-10-17T11:28:57;2.57;;;2.33;;
8281;SDS011;25606;42.686;23.136;2022-10-17T11:31:27;2.87;;;2.13;;
8281;SDS011;25606;42.686;23.136;2022-10-17T11:33:57;3.30;;;2.33;;
8281;SDS011;25606;42.686;23.136;2022-10-17T11:36:26;2.57;;;2.37;;
8281;SDS011;25606;42.686;23.136;2022-10-17T11:38:54;2.47;;;2.27;;
8281;SDS011;25606;42.686;23.136;2022-10-17T11:41:25;3.73;;;2.27;;
8281;SDS011;25606;42.686;23.136;2022-10-17T11:43:54;3.07;;;2.47;;
8281;SDS011;25606;42.686;23.136;2022-10-17T11:46:26;3.83;;;2.73;;
8281;SDS011;25606;42.686;23.136;2022-10-17T11:48:58;2.83;;;2.40;;
8281;SDS011;25606;42.686;23.136;2022-10-17T11:51:26;4.87;;;2.70;;
8281;SDS011;25606;42.686;23.136;2022-10-17T11:53:56;2.37;;;2.17;;
8281;SDS011;25606;42.686;23.136;2022-10-17T11:56:25;3.43;;;2.23;;
8281;SDS011;25606;42.686;23.136;2022-10-17T11:58:54;2.13;;;1.93;;
8281;SDS011;25606;42.686;23.136;2022-10-17T12:01:29;4.97;;;2.53;;
8281;SDS011;25606;42.686;23.136;2022-10-17T12:04:01;2.73;;;2.03;;
8281;SDS011;25606;42.686;23.136;2022-10-17T12:06:38;5.17;;;2.77;;
8281;SDS011;25606;42.686;23.136;2022-10-17T12:09:10;2.97;;;2.13;;
8281;SDS011;25606;42.686;23.136;2022-10-17T12:11:41;2.50;;;2.27;;
8281;SDS011;25606;42.686;23.136;2022-10-17T12:16:57;4.60;;;2.40;;
8281;SDS011;25606;42.686;23.136;2022-10-17T12:19:28;5.43;;;2.25;;
8281;SDS011;25606;42.686;23.136;2022-10-17T12:21:57;4.90;;;2.40;;
8281;SDS011;25606;42.686;23.136;2022-10-17T12:24:38;3.37;;;2.50;;
8281;SDS011;25606;42.686;23.136;2022-10-17T12:27:23;5.07;;;2.53;;
8281;SDS011;25606;42.686;23.136;2022-10-17T12:29:57;3.67;;;2.70;;
8281;SDS011;25606;42.686;23.136;2022-10-17T12:32:26;3.63;;;2.67;;
8281;SDS011;25606;42.686;23.136;2022-10-17T12:34:53;3.57;;;2.23;;
8281;SDS011;25606;42.686;23.136;2022-10-17T12:42:49;3.03;;;2.30;;
8281;SDS011;25606;42.686;23.136;2022-10-17T12:48:13;3.27;;;2.50;;
8281;SDS011;25606;42.686;23.136;2022-10-17T12:51:01;3.43;;;2.40;;
8281;SDS011;25606;42.686;23.136;2022-10-17T12:53:31;4.03;;;2.23;;
8281;SDS011;25606;42.686;23.136;2022-10-17T12:56:02;2.30;;;2.10;;
8281;SDS011;25606;42.686;23.136;2022-10-17T12:58:29;2.27;;;2.07;;
8281;SDS011;25606;42.686;23.136;2022-10-17T13:00:56;3.33;;;2.30;;
8281;SDS011;25606;42.686;23.136;2022-10-17T13:03:26;3.13;;;2.40;;
8281;SDS011;25606;42.686;23.136;2022-10-17T13:05:54;2.63;;;2.40;;
8281;SDS011;25606;42.686;23.136;2022-10-17T13:08:24;2.40;;;2.20;;
8281;SDS011;25606;42.686;23.136;2022-10-17T13:10:53;2.87;;;2.60;;
8281;SDS011;25606;42.686;23.136;2022-10-17T13:13:22;3.83;;;2.17;;
8281;SDS011;25606;42.686;23.136;2022-10-17T13:15:51;3.43;;;2.20;;
8281;SDS011;25606;42.686;23.136;2022-10-17T13:18:20;3.33;;;2.47;;
8281;SDS011;25606;42.686;23.136;2022-10-17T13:20:56;5.23;;;2.47;;
8281;SDS011;25606;42.686;23.136;2022-10-17T13:23:23;3.60;;;2.30;;
8281;SDS011;25606;42.686;23.136;2022-10-17T13:26:05;3.17;;;2.37;;
8281;SDS011;25606;42.686;23.136;2022-10-17T13:28:32;3.10;;;2.30;;
8281;SDS011;25606;42.686;23.136;2022-10-17T13:31:00;2.60;;;2.20;;
8281;SDS011;25606;42.686;23.136;2022-10-17T13:33:29;4.77;;;2.73;;
8281;SDS011;25606;42.686;23.136;2022-10-17T13:35:58;3.97;;;2.70;;
8281;SDS011;25606;42.686;23.136;2022-10-17T13:38:28;2.70;;;2.22;;
8281;SDS011;25606;42.686;23.136;2022-10-17T13:40:57;4.13;;;2.83;;
8281;SDS011;25606;42.686;23.136;2022-10-17T13:43:24;4.13;;;2.50;;
8281;SDS011;25606;42.686;23.136;2022-10-17T13:45:52;3.27;;;2.40;;
8281;SDS011;25606;42.686;23.136;2022-10-17T13:48:22;6.23;;;2.33;;
8281;SDS011;25606;42.686;23.136;2022-10-17T13:50:50;4.90;;;2.60;;
8281;SDS011;25606;42.686;23.136;2022-10-17T13:53:24;2.50;;;2.30;;
8281;SDS011;25606;42.686;23.136;2022-10-17T13:55:52;5.87;;;2.63;;
8281;SDS011;25606;42.686;23.136;2022-10-17T13:58:19;3.60;;;2.33;;
8281;SDS011;25606;42.686;23.136;2022-10-17T14:00:47;3.00;;;2.20;;
8281;SDS011;25606;42.686;23.136;2022-10-17T14:03:16;2.33;;;2.03;;
8281;SDS011;25606;42.686;23.136;2022-10-17T14:06:07;2.30;;;2.10;;
8281;SDS011;25606;42.686;23.136;2022-10-17T14:08:38;4.47;;;2.33;;
8281;SDS011;25606;42.686;23.136;2022-10-17T14:11:13;4.67;;;2.70;;
8281;SDS011;25606;42.686;23.136;2022-10-17T14:13:40;3.37;;;2.33;;
8281;SDS011;25606;42.686;23.136;2022-10-17T14:16:08;6.43;;;2.67;;
8281;SDS011;25606;42.686;23.136;2022-10-17T14:18:35;4.90;;;2.83;;
8281;SDS011;25606;42.686;23.136;2022-10-17T14:21:04;3.67;;;2.50;;
8281;SDS011;25606;42.686;23.136;2022-10-17T14:23:34;5.47;;;2.63;;
8281;SDS011;25606;42.686;23.136;2022-10-17T14:26:07;4.67;;;2.70;;
8281;SDS011;25606;42.686;23.136;2022-10-17T14:28:34;3.30;;;2.70;;
8281;SDS011;25606;42.686;23.136;2022-10-17T14:31:09;9.27;;;3.20;;
8281;SDS011;25606;42.686;23.136;2022-10-17T14:33:41;7.20;;;2.57;;
8281;SDS011;25606;42.686;23.136;2022-10-17T14:36:09;3.47;;;2.50;;
8281;SDS011;25606;42.686;23.136;2022-10-17T14:38:36;3.37;;;2.67;;
8281;SDS011;25606;42.686;23.136;2022-10-17T14:41:05;3.07;;;2.50;;
8281;SDS011;25606;42.686;23.136;2022-10-17T14:43:34;4.90;;;4.03;;
8281;SDS011;25606;42.686;23.136;2022-10-17T14:46:01;4.33;;;3.47;;
8281;SDS011;25606;42.686;23.136;2022-10-17T14:48:29;3.97;;;2.70;;
8281;SDS011;25606;42.686;23.136;2022-10-17T14:51:06;4.37;;;3.10;;
8281;SDS011;25606;42.686;23.136;2022-10-17T14:53:34;3.67;;;2.37;;
8281;SDS011;25606;42.686;23.136;2022-10-17T14:56:02;2.83;;;2.13;;
8281;SDS011;25606;42.686;23.136;2022-10-17T14:58:30;3.13;;;2.70;;
8281;SDS011;25606;42.686;23.136;2022-10-17T15:01:00;2.83;;;2.50;;
8281;SDS011;25606;42.686;23.136;2022-10-17T15:03:28;3.10;;;2.80;;
8281;SDS011;25606;42.686;23.136;2022-10-17T15:05:55;5.20;;;2.80;;
8281;SDS011;25606;42.686;23.136;2022-10-17T15:08:22;4.37;;;3.03;;
8281;SDS011;25606;42.686;23.136;2022-10-17T15:10:50;3.90;;;3.07;;
8281;SDS011;25606;42.686;23.136;2022-10-17T15:13:17;5.53;;;2.63;;
8281;SDS011;25606;42.686;23.136;2022-10-17T15:15:45;3.53;;;3.03;;